Main page
METAR-TAF:

METAR-TAF

Airports :

Aydın Airport

Aydın, Turkey

latitude: 37-48-54N, longitude: 27-53-21E, elevation: 31 m

Current weather observation

The report was made 28 minutes ago, at 05:50 UTC
Wind 7 kt from the East/Northeast
Temperature 8°C
Humidity 81%
Pressure 1022 hPa
Visibility 10 km or more
Scattered clouds at a height of 3500 ft
Broken clouds at a height of 10000 ft

METAR: LTBD 060550Z 06007KT 9999 SCT035 BKN100 08/05 Q1022

Time: 09:18 (06:18 UTC)

Forecast

The report was made 1 hour and 38 minutes ago, at 04:40 UTC
Forecast valid from 06 at 06 UTC to 06 at 15 UTC
Wind 2 kt from variable directions
Visibility 10 km or more
Scattered clouds at a height of 3000 ft
Broken clouds at a height of 10000 ft
Temporary
from 06 at 11 UTC to 06 at 15 UTC
Wind 12 kt from the West
light rain showers

TAF: LTBD 060440Z 0606/0615 VRB02KT 9999 SCT030 BKN100 TEMPO 0611/0615 28012KT -SHRA

Weather observations and forecasts of more than 4000 airports (METAR and TAF reports).

The available stations are represented by yellow and red dots on the map.

Hover mouse over dot to see the name of the station.

Then click to see weather observations and forecasts.

To change the map : click on the green buttons with a black cross to zoom in, on the green button with a dash to zoom out, or on the green arrows for adjacent maps.


METAR-TAF: